FDX5066 EBLG-KMEM
Flight info
| Callsign | FDX5066 |
|---|---|
| Flight time | N/A |
| Altitude | 32000 |
| Route | BUB L608 DENUT L610 LAM L10 BPK UN601 LESTA UP6 RODOL UL28 PENIL DCT OGTUG DCT BAGSO DCT PIKIL/M084F320 DCT 57N020W 59N030W 60N040W 59N050W/M084F340 DCT AVUTI/N0491F340 N846C YDP/N0489F360 N846C ROUND DCT LIBUT DCT EBDOG DCT YVV DCT SVM DCT FWA DCT VHP DCT PXV BLUZZ5 |
| Aircraft | B77L/H-SDE1E2E3FGHIJ2J3J4J5M1RWXY/LB1D1 |
Departure
| Time | 2026-05-09 07:30 |
|---|---|
| Airport | Liège Airport (EBLG) |
Arrival
| Time | N/A |
|---|---|
| Airport | Memphis International Airport (KMEM) |
| Time | Latitude | Longitude | Altitude | Speed | Heading |
|---|---|---|---|---|---|
| 2026-05-09 07:06 | 50.63592 | 5.44743 | 634 ft | 0 kts | 136° |
| 2026-05-09 07:16 | 50.63442 | 5.44635 | 631 ft | 0 kts | 135° |
| 2026-05-09 07:20 | 50.63451 | 5.44621 | 635 ft | 4 kts | 135° |
| 2026-05-09 07:20 | 50.63470 | 5.44591 | 635 ft | 4 kts | 135° |
| 2026-05-09 07:20 | 50.63489 | 5.44562 | 635 ft | 4 kts | 135° |
| 2026-05-09 07:21 | 50.63508 | 5.44532 | 635 ft | 4 kts | 135° |
| 2026-05-09 07:21 | 50.63524 | 5.44507 | 635 ft | 4 kts | 143° |
| 2026-05-09 07:21 | 50.63547 | 5.44492 | 635 ft | 4 kts | 186° |
| 2026-05-09 07:21 | 50.63570 | 5.44506 | 634 ft | 4 kts | 221° |
| 2026-05-09 07:22 | 50.63576 | 5.44515 | 634 ft | 3 kts | 225° |
| 2026-05-09 07:24 | 50.63573 | 5.44509 | 621 ft | 5 kts | 225° |
| 2026-05-09 07:24 | 50.63509 | 5.44407 | 636 ft | 17 kts | 225° |
| 2026-05-09 07:24 | 50.63428 | 5.44280 | 643 ft | 17 kts | 225° |
| 2026-05-09 07:24 | 50.63348 | 5.44153 | 645 ft | 17 kts | 225° |
| 2026-05-09 07:25 | 50.63266 | 5.44024 | 648 ft | 17 kts | 225° |
| 2026-05-09 07:25 | 50.63200 | 5.43904 | 650 ft | 13 kts | 251° |
| 2026-05-09 07:25 | 50.63257 | 5.43841 | 648 ft | 13 kts | 13° |
| 2026-05-09 07:25 | 50.63311 | 5.43864 | 646 ft | 11 kts | 8° |
| 2026-05-09 07:26 | 50.63332 | 5.43859 | 651 ft | 1 kts | 332° |
| 2026-05-09 07:26 | 50.63339 | 5.43844 | 648 ft | 4 kts | 302° |
| 2026-05-09 07:26 | 50.63340 | 5.43803 | 647 ft | 4 kts | 266° |
| 2026-05-09 07:27 | 50.63337 | 5.43753 | 650 ft | 8 kts | 264° |
| 2026-05-09 07:27 | 50.63319 | 5.43629 | 654 ft | 13 kts | 255° |
| 2026-05-09 07:27 | 50.63296 | 5.43487 | 647 ft | 15 kts | 253° |
| 2026-05-09 07:27 | 50.63276 | 5.43376 | 648 ft | 17 kts | 256° |
| 2026-05-09 07:28 | 50.63220 | 5.43157 | 647 ft | 17 kts | 229° |
| 2026-05-09 07:28 | 50.63138 | 5.43030 | 649 ft | 17 kts | 225° |
| 2026-05-09 07:28 | 50.63077 | 5.42961 | 649 ft | 17 kts | 197° |
| 2026-05-09 07:28 | 50.62970 | 5.43005 | 664 ft | 17 kts | 149° |
| 2026-05-09 07:29 | 50.62942 | 5.43146 | 662 ft | 11 kts | 45° |
| 2026-05-09 07:29 | 50.63004 | 5.43245 | 661 ft | 29 kts | 45° |
| 2026-05-09 07:29 | 50.63310 | 5.43729 | 652 ft | 97 kts | 45° |
| 2026-05-09 07:29 | 50.63948 | 5.44740 | 627 ft | 160 kts | 45° |
| 2026-05-09 07:30 | 50.65101 | 5.46571 | 1103 ft | 178 kts | 45° |
| 2026-05-09 07:30 | 50.65986 | 5.47966 | 1719 ft | 183 kts | 46° |
| 2026-05-09 07:30 | 50.66892 | 5.49405 | 2273 ft | 185 kts | 46° |
| 2026-05-09 07:30 | 50.67802 | 5.50859 | 2728 ft | 188 kts | 46° |
| 2026-05-09 07:31 | 50.68412 | 5.51834 | 2994 ft | 189 kts | 47° |
| 2026-05-09 07:31 | 50.69342 | 5.53319 | 3429 ft | 191 kts | 46° |
| 2026-05-09 07:31 | 50.70282 | 5.54812 | 3813 ft | 196 kts | 46° |
| 2026-05-09 07:31 | 50.71291 | 5.56418 | 3963 ft | 215 kts | 46° |
| 2026-05-09 07:32 | 50.72482 | 5.57928 | 4172 ft | 227 kts | 21° |
| 2026-05-09 07:32 | 50.74057 | 5.58139 | 4462 ft | 235 kts | 342° |
| 2026-05-09 07:32 | 50.75657 | 5.56015 | 5068 ft | 234 kts | 290° |
| 2026-05-09 07:32 | 50.76085 | 5.53555 | 5499 ft | 234 kts | 283° |
| 2026-05-09 07:33 | 50.76354 | 5.51865 | 5840 ft | 236 kts | 284° |
| 2026-05-09 07:33 | 50.77210 | 5.46885 | 6937 ft | 238 kts | 284° |
| 2026-05-09 07:33 | 50.77651 | 5.44358 | 7443 ft | 240 kts | 283° |
| 2026-05-09 07:34 | 50.78084 | 5.41773 | 7802 ft | 250 kts | 281° |
| 2026-05-09 07:34 | 50.78482 | 5.38988 | 7990 ft | 268 kts | 281° |
| 2026-05-09 07:34 | 50.78889 | 5.36058 | 8409 ft | 278 kts | 281° |
| 2026-05-09 07:34 | 50.79311 | 5.33033 | 8927 ft | 285 kts | 281° |
| 2026-05-09 07:35 | 50.79743 | 5.29965 | 9531 ft | 288 kts | 281° |
| 2026-05-09 07:35 | 50.80181 | 5.26855 | 10138 ft | 291 kts | 281° |
| 2026-05-09 07:35 | 50.80628 | 5.23682 | 10535 ft | 303 kts | 281° |
| 2026-05-09 07:35 | 50.81104 | 5.20310 | 10688 ft | 324 kts | 281° |
| 2026-05-09 07:36 | 50.81603 | 5.16767 | 10852 ft | 345 kts | 281° |
| 2026-05-09 07:36 | 50.82140 | 5.12949 | 11053 ft | 365 kts | 281° |
| 2026-05-09 07:36 | 50.82693 | 5.08970 | 11558 ft | 376 kts | 281° |
| 2026-05-09 07:36 | 50.83257 | 5.04896 | 12225 ft | 382 kts | 281° |
| 2026-05-09 07:37 | 50.83825 | 5.00779 | 13092 ft | 384 kts | 281° |
| 2026-05-09 07:37 | 50.84396 | 4.96633 | 13940 ft | 387 kts | 281° |
| 2026-05-09 07:37 | 50.84971 | 4.92449 | 14631 ft | 391 kts | 281° |
| 2026-05-09 07:37 | 50.85550 | 4.88217 | 15296 ft | 396 kts | 281° |
| 2026-05-09 07:38 | 50.86127 | 4.83983 | 15957 ft | 401 kts | 281° |
| 2026-05-09 07:38 | 50.86718 | 4.79643 | 16638 ft | 405 kts | 281° |
| 2026-05-09 07:38 | 50.87312 | 4.75265 | 17322 ft | 409 kts | 281° |
| 2026-05-09 07:38 | 50.87912 | 4.70834 | 17982 ft | 414 kts | 281° |
| 2026-05-09 07:39 | 50.88518 | 4.66349 | 18590 ft | 419 kts | 281° |
| 2026-05-09 07:39 | 50.89128 | 4.61815 | 19156 ft | 423 kts | 281° |
| 2026-05-09 07:39 | 50.89742 | 4.57236 | 19750 ft | 426 kts | 281° |
| 2026-05-09 07:39 | 50.90490 | 4.52759 | 20248 ft | 430 kts | 291° |
| 2026-05-09 07:40 | 50.91918 | 4.48587 | 20623 ft | 435 kts | 302° |
| 2026-05-09 07:40 | 50.93575 | 4.44537 | 21097 ft | 441 kts | 302° |
| 2026-05-09 07:40 | 50.95241 | 4.40437 | 21716 ft | 442 kts | 302° |
| 2026-05-09 07:40 | 50.96889 | 4.36310 | 22376 ft | 443 kts | 301° |
| 2026-05-09 07:41 | 50.98519 | 4.32147 | 23011 ft | 445 kts | 301° |
| 2026-05-09 07:41 | 51.00146 | 4.27936 | 23560 ft | 449 kts | 301° |
| 2026-05-09 07:41 | 51.01772 | 4.23688 | 24019 ft | 452 kts | 301° |
| 2026-05-09 07:41 | 51.03405 | 4.19398 | 24480 ft | 455 kts | 301° |
| 2026-05-09 07:42 | 51.05026 | 4.15133 | 24958 ft | 458 kts | 301° |
| 2026-05-09 07:42 | 51.06674 | 4.10791 | 25443 ft | 460 kts | 301° |
| 2026-05-09 07:42 | 51.08330 | 4.06421 | 25873 ft | 463 kts | 301° |
| 2026-05-09 07:42 | 51.09996 | 4.02019 | 26307 ft | 466 kts | 300° |
| 2026-05-09 07:43 | 51.11672 | 3.97584 | 26734 ft | 469 kts | 301° |
| 2026-05-09 07:43 | 51.13353 | 3.93128 | 27176 ft | 471 kts | 301° |
| 2026-05-09 07:43 | 51.15046 | 3.88635 | 27586 ft | 474 kts | 300° |
| 2026-05-09 07:43 | 51.16745 | 3.84117 | 28007 ft | 477 kts | 300° |
| 2026-05-09 07:44 | 51.18430 | 3.79631 | 28402 ft | 480 kts | 300° |
| 2026-05-09 07:44 | 51.20150 | 3.75040 | 28663 ft | 486 kts | 300° |
| 2026-05-09 07:44 | 51.21843 | 3.70357 | 28997 ft | 488 kts | 296° |
| 2026-05-09 07:44 | 51.23240 | 3.65421 | 29398 ft | 489 kts | 290° |
| 2026-05-09 07:45 | 51.24346 | 3.60296 | 29783 ft | 489 kts | 284° |
| 2026-05-09 07:45 | 51.25118 | 3.55002 | 30153 ft | 489 kts | 279° |
| 2026-05-09 07:45 | 51.25757 | 3.49668 | 30541 ft | 489 kts | 280° |
| 2026-05-09 07:45 | 51.26420 | 3.44352 | 30969 ft | 487 kts | 281° |
| 2026-05-09 07:46 | 51.27107 | 3.39064 | 31424 ft | 485 kts | 281° |
| 2026-05-09 07:46 | 51.27786 | 3.33880 | 31852 ft | 483 kts | 281° |
| 2026-05-09 07:46 | 51.28471 | 3.28628 | 32235 ft | 482 kts | 280° |
| 2026-05-09 07:46 | 51.29151 | 3.23388 | 32625 ft | 481 kts | 280° |
| 2026-05-09 07:47 | 51.29826 | 3.18163 | 33068 ft | 479 kts | 280° |
| 2026-05-09 07:47 | 51.30494 | 3.12969 | 33487 ft | 477 kts | 280° |
| 2026-05-09 07:47 | 51.31158 | 3.07785 | 33839 ft | 476 kts | 280° |
| 2026-05-09 07:47 | 51.31820 | 3.02602 | 34058 ft | 478 kts | 280° |
| 2026-05-09 07:48 | 51.32484 | 2.97376 | 34104 ft | 481 kts | 280° |
| 2026-05-09 07:48 | 51.33798 | 2.86984 | 34124 ft | 478 kts | 280° |
| 2026-05-09 07:49 | 51.35103 | 2.76593 | 34132 ft | 476 kts | 279° |
| 2026-05-09 07:49 | 51.36387 | 2.66201 | 34134 ft | 476 kts | 279° |
| 2026-05-09 07:50 | 51.37654 | 2.55789 | 34132 ft | 477 kts | 279° |
| 2026-05-09 07:50 | 51.38907 | 2.45434 | 34132 ft | 477 kts | 279° |
| 2026-05-09 07:51 | 51.40164 | 2.34991 | 34137 ft | 478 kts | 278° |
| 2026-05-09 07:51 | 51.41415 | 2.24520 | 34132 ft | 479 kts | 278° |
| 2026-05-09 07:52 | 51.42695 | 2.14028 | 34134 ft | 480 kts | 279° |
| 2026-05-09 07:52 | 51.43972 | 2.03593 | 34137 ft | 481 kts | 279° |
| 2026-05-09 07:53 | 51.45232 | 1.93083 | 34134 ft | 481 kts | 278° |
| 2026-05-09 07:53 | 51.46473 | 1.82526 | 34138 ft | 482 kts | 278° |
| 2026-05-09 07:54 | 51.47680 | 1.71953 | 34138 ft | 482 kts | 278° |
| 2026-05-09 07:54 | 51.48884 | 1.61373 | 34139 ft | 482 kts | 278° |
| 2026-05-09 07:55 | 51.50074 | 1.50857 | 34143 ft | 482 kts | 278° |
| 2026-05-09 07:55 | 51.51267 | 1.40253 | 34138 ft | 483 kts | 277° |
| 2026-05-09 07:56 | 51.52447 | 1.29646 | 34142 ft | 483 kts | 277° |
| 2026-05-09 07:56 | 51.53612 | 1.19091 | 34147 ft | 483 kts | 277° |
| 2026-05-09 07:57 | 51.54778 | 1.08454 | 34152 ft | 484 kts | 277° |
| 2026-05-09 07:57 | 51.55934 | 0.97860 | 34142 ft | 484 kts | 277° |
| 2026-05-09 07:58 | 51.57089 | 0.87151 | 34135 ft | 484 kts | 276° |
| 2026-05-09 07:58 | 51.58223 | 0.76483 | 34128 ft | 484 kts | 276° |
| 2026-05-09 07:59 | 51.59342 | 0.65892 | 34131 ft | 484 kts | 276° |
| 2026-05-09 07:59 | 51.60544 | 0.55218 | 34129 ft | 484 kts | 277° |
| 2026-05-09 08:00 | 51.61664 | 0.44553 | 34134 ft | 483 kts | 275° |
| 2026-05-09 08:00 | 51.62723 | 0.33853 | 34140 ft | 484 kts | 276° |
| 2026-05-09 08:01 | 51.63811 | 0.23156 | 34142 ft | 485 kts | 277° |
| 2026-05-09 08:01 | 51.65835 | 0.12817 | 34139 ft | 492 kts | 291° |
| 2026-05-09 08:02 | 51.69304 | 0.03259 | 34136 ft | 497 kts | 302° |
| 2026-05-09 08:02 | 51.73243 | -0.05910 | 34177 ft | 500 kts | 306° |
| 2026-05-09 08:03 | 51.78252 | -0.13764 | 34187 ft | 506 kts | 321° |
| 2026-05-09 08:03 | 51.84219 | -0.19719 | 34150 ft | 509 kts | 328° |
| 2026-05-09 08:04 | 51.90383 | -0.25376 | 34155 ft | 509 kts | 328° |
| 2026-05-09 08:04 | 51.96497 | -0.31151 | 34160 ft | 508 kts | 327° |
| 2026-05-09 08:05 | 52.02578 | -0.36996 | 34158 ft | 508 kts | 327° |
| 2026-05-09 08:05 | 52.08613 | -0.42803 | 34162 ft | 507 kts | 327° |
| 2026-05-09 08:06 | 52.14667 | -0.48664 | 34155 ft | 506 kts | 327° |
| 2026-05-09 08:06 | 52.20701 | -0.54539 | 34155 ft | 505 kts | 327° |
| 2026-05-09 08:07 | 52.26725 | -0.60413 | 34155 ft | 504 kts | 327° |
| 2026-05-09 08:07 | 52.32742 | -0.66296 | 34165 ft | 503 kts | 326° |
| 2026-05-09 08:08 | 52.38695 | -0.72135 | 34152 ft | 502 kts | 326° |
| 2026-05-09 08:08 | 52.44670 | -0.78014 | 34159 ft | 501 kts | 326° |
| 2026-05-09 08:09 | 52.50632 | -0.83903 | 34160 ft | 500 kts | 326° |
| 2026-05-09 08:09 | 52.56582 | -0.89803 | 34168 ft | 499 kts | 326° |
| 2026-05-09 08:10 | 52.62490 | -0.95672 | 34136 ft | 499 kts | 326° |
| 2026-05-09 08:10 | 52.68434 | -1.01561 | 34147 ft | 499 kts | 326° |
| 2026-05-09 08:11 | 52.74291 | -1.07726 | 34157 ft | 498 kts | 320° |
| 2026-05-09 08:11 | 52.79437 | -1.15313 | 34168 ft | 495 kts | 312° |
| 2026-05-09 08:12 | 52.86845 | -1.27156 | 34158 ft | 497 kts | 312° |
| 2026-05-09 08:12 | 52.91844 | -1.35063 | 34163 ft | 497 kts | 313° |
| 2026-05-09 08:13 | 52.96854 | -1.42980 | 34159 ft | 497 kts | 312° |
| 2026-05-09 08:13 | 53.01845 | -1.50902 | 34173 ft | 496 kts | 312° |
| 2026-05-09 08:14 | 53.06790 | -1.58777 | 34170 ft | 496 kts | 312° |
| 2026-05-09 08:14 | 53.11760 | -1.66739 | 34165 ft | 495 kts | 311° |
| 2026-05-09 08:15 | 53.16694 | -1.74696 | 34166 ft | 494 kts | 311° |
| 2026-05-09 08:15 | 53.21564 | -1.82778 | 34162 ft | 490 kts | 306° |
| 2026-05-09 08:16 | 53.25526 | -1.91905 | 34189 ft | 482 kts | 295° |
| 2026-05-09 08:16 | 53.28509 | -2.01750 | 34185 ft | 477 kts | 291° |
| 2026-05-09 08:17 | 53.31420 | -2.11736 | 34188 ft | 478 kts | 291° |
| 2026-05-09 08:17 | 53.34374 | -2.21706 | 34189 ft | 478 kts | 291° |
| 2026-05-09 08:18 | 53.36904 | -2.31913 | 34195 ft | 471 kts | 282° |
| 2026-05-09 08:18 | 53.38852 | -2.42400 | 34184 ft | 472 kts | 282° |
| 2026-05-09 08:19 | 53.40797 | -2.52848 | 34193 ft | 473 kts | 282° |
| 2026-05-09 08:19 | 53.42782 | -2.63377 | 34179 ft | 474 kts | 282° |
| 2026-05-09 08:20 | 53.44770 | -2.73927 | 34172 ft | 475 kts | 282° |
| 2026-05-09 08:20 | 53.46752 | -2.84514 | 34177 ft | 475 kts | 282° |
| 2026-05-09 08:21 | 53.48702 | -2.95012 | 34170 ft | 476 kts | 282° |
| 2026-05-09 08:21 | 53.50645 | -3.05627 | 34173 ft | 475 kts | 281° |
| 2026-05-09 08:22 | 53.52576 | -3.16254 | 34178 ft | 476 kts | 281° |
| 2026-05-09 08:22 | 53.54499 | -3.26891 | 34177 ft | 476 kts | 281° |
| 2026-05-09 08:23 | 53.56417 | -3.37551 | 34176 ft | 476 kts | 281° |
| 2026-05-09 08:23 | 53.58313 | -3.48136 | 34179 ft | 476 kts | 281° |
| 2026-05-09 08:24 | 53.60239 | -3.58796 | 34184 ft | 476 kts | 281° |
| 2026-05-09 08:24 | 53.61775 | -3.69566 | 34181 ft | 469 kts | 272° |
| 2026-05-09 08:25 | 53.62252 | -3.80444 | 34194 ft | 465 kts | 268° |
| 2026-05-09 08:25 | 53.62649 | -3.91259 | 34189 ft | 466 kts | 268° |
| 2026-05-09 08:26 | 53.63069 | -4.02158 | 34192 ft | 466 kts | 268° |
| 2026-05-09 08:26 | 53.63496 | -4.13064 | 34190 ft | 467 kts | 268° |
| 2026-05-09 08:27 | 53.63916 | -4.23968 | 34202 ft | 467 kts | 268° |
| 2026-05-09 08:27 | 53.64322 | -4.34814 | 34199 ft | 467 kts | 268° |
| 2026-05-09 08:28 | 53.64720 | -4.45725 | 34195 ft | 466 kts | 268° |
| 2026-05-09 08:28 | 53.65107 | -4.56631 | 34203 ft | 466 kts | 268° |
| 2026-05-09 08:29 | 53.65485 | -4.67530 | 34209 ft | 465 kts | 268° |
| 2026-05-09 08:29 | 53.65852 | -4.78403 | 34214 ft | 464 kts | 268° |
| 2026-05-09 08:30 | 53.66205 | -4.89169 | 34214 ft | 462 kts | 268° |
| 2026-05-09 08:30 | 53.66548 | -4.99970 | 34217 ft | 461 kts | 268° |
| 2026-05-09 08:31 | 53.66883 | -5.10736 | 34217 ft | 459 kts | 268° |
| 2026-05-09 08:31 | 53.67205 | -5.21494 | 34243 ft | 459 kts | 268° |
| 2026-05-09 08:32 | 53.67511 | -5.32172 | 34233 ft | 459 kts | 268° |
| 2026-05-09 08:33 | 53.68360 | -5.48289 | 34213 ft | 466 kts | 278° |
| 2026-05-09 08:33 | 53.70472 | -5.58712 | 34228 ft | 476 kts | 290° |
| 2026-05-09 08:34 | 53.73462 | -5.68691 | 34246 ft | 477 kts | 292° |
| 2026-05-09 08:34 | 53.76495 | -5.78682 | 34238 ft | 478 kts | 291° |
| 2026-05-09 08:35 | 53.79469 | -5.88638 | 34239 ft | 478 kts | 291° |
| 2026-05-09 08:35 | 53.82435 | -5.98702 | 34246 ft | 478 kts | 291° |
| 2026-05-09 08:36 | 53.85386 | -6.08789 | 34269 ft | 478 kts | 291° |
| 2026-05-09 08:36 | 53.88322 | -6.18868 | 34245 ft | 476 kts | 290° |
| 2026-05-09 08:37 | 53.91242 | -6.28928 | 34254 ft | 474 kts | 290° |
| 2026-05-09 08:37 | 53.94122 | -6.38894 | 34252 ft | 473 kts | 290° |
| 2026-05-09 08:38 | 53.97005 | -6.48914 | 34262 ft | 472 kts | 290° |
| 2026-05-09 08:38 | 53.99874 | -6.58925 | 34261 ft | 471 kts | 290° |
| 2026-05-09 08:39 | 54.02731 | -6.68940 | 34271 ft | 471 kts | 290° |
| 2026-05-09 08:39 | 54.05562 | -6.78906 | 34294 ft | 471 kts | 290° |
| 2026-05-09 08:40 | 54.08404 | -6.88951 | 34294 ft | 471 kts | 290° |
| 2026-05-09 08:40 | 54.11232 | -6.98984 | 34273 ft | 469 kts | 290° |
| 2026-05-09 08:41 | 54.14041 | -7.08998 | 34275 ft | 467 kts | 290° |
| 2026-05-09 08:41 | 54.16832 | -7.18993 | 34276 ft | 466 kts | 290° |
| 2026-05-09 08:42 | 54.19588 | -7.28904 | 34283 ft | 465 kts | 290° |
| 2026-05-09 08:42 | 54.22351 | -7.38890 | 34288 ft | 465 kts | 289° |
| 2026-05-09 08:43 | 54.25105 | -7.48882 | 34305 ft | 465 kts | 290° |